sensor_id;sensor_type;location;lat;lon;timestamp;temperature;humidity
4505;DHT22;2265;48.794;9.520;2022-08-11T00:00:34;18.50;93.90
4505;DHT22;2265;48.794;9.520;2022-08-11T00:03:04;18.60;93.60
4505;DHT22;2265;48.794;9.520;2022-08-11T00:05:37;18.50;93.70
4505;DHT22;2265;48.794;9.520;2022-08-11T00:08:10;18.60;93.80
4505;DHT22;2265;48.794;9.520;2022-08-11T00:10:38;18.60;94.10
4505;DHT22;2265;48.794;9.520;2022-08-11T00:13:07;18.70;93.80
4505;DHT22;2265;48.794;9.520;2022-08-11T00:15:41;18.70;93.80
4505;DHT22;2265;48.794;9.520;2022-08-11T00:18:10;18.60;94.00
4505;DHT22;2265;48.794;9.520;2022-08-11T00:20:41;18.40;94.50
4505;DHT22;2265;48.794;9.520;2022-08-11T00:23:12;18.20;95.60
4505;DHT22;2265;48.794;9.520;2022-08-11T00:25:41;18.20;95.70
4505;DHT22;2265;48.794;9.520;2022-08-11T00:28:29;18.20;95.50
4505;DHT22;2265;48.794;9.520;2022-08-11T00:30:58;18.40;94.70
4505;DHT22;2265;48.794;9.520;2022-08-11T00:33:33;18.50;93.90
4505;DHT22;2265;48.794;9.520;2022-08-11T00:36:02;18.30;93.80
4505;DHT22;2265;48.794;9.520;2022-08-11T00:38:33;18.30;94.40
4505;DHT22;2265;48.794;9.520;2022-08-11T00:41:17;18.10;95.10
4505;DHT22;2265;48.794;9.520;2022-08-11T00:46:58;17.80;96.00
4505;DHT22;2265;48.794;9.520;2022-08-11T00:49:44;18.00;95.80
4505;DHT22;2265;48.794;9.520;2022-08-11T00:52:32;18.00;95.50
4505;DHT22;2265;48.794;9.520;2022-08-11T01:01:29;17.90;96.10
4505;DHT22;2265;48.794;9.520;2022-08-11T01:04:37;17.80;96.30
4505;DHT22;2265;48.794;9.520;2022-08-11T01:07:31;17.90;96.20
4505;DHT22;2265;48.794;9.520;2022-08-11T01:10:21;17.90;96.20
4505;DHT22;2265;48.794;9.520;2022-08-11T01:13:07;17.90;96.50
4505;DHT22;2265;48.794;9.520;2022-08-11T01:16:13;17.80;96.90
4505;DHT22;2265;48.794;9.520;2022-08-11T01:25:38;17.50;98.00
4505;DHT22;2265;48.794;9.520;2022-08-11T01:31:35;17.30;98.00
4505;DHT22;2265;48.794;9.520;2022-08-11T01:37:42;17.30;98.00
4505;DHT22;2265;48.794;9.520;2022-08-11T01:40:42;17.40;98.00
4505;DHT22;2265;48.794;9.520;2022-08-11T01:46:51;17.10;98.00
4505;DHT22;2265;48.794;9.520;2022-08-11T01:49:24;17.00;98.00
4505;DHT22;2265;48.794;9.520;2022-08-11T01:54:58;17.10;98.00
4505;DHT22;2265;48.794;9.520;2022-08-11T01:57:36;17.20;98.00
4505;DHT22;2265;48.794;9.520;2022-08-11T02:00:08;17.30;98.00
4505;DHT22;2265;48.794;9.520;2022-08-11T02:02:46;17.10;98.00
4505;DHT22;2265;48.794;9.520;2022-08-11T02:05:56;16.90;98.00
4505;DHT22;2265;48.794;9.520;2022-08-11T02:08:44;17.00;98.00
4505;DHT22;2265;48.794;9.520;2022-08-11T02:11:23;16.90;98.00
4505;DHT22;2265;48.794;9.520;2022-08-11T02:14:11;16.90;98.00
4505;DHT22;2265;48.794;9.520;2022-08-11T02:16:50;17.00;98.00
4505;DHT22;2265;48.794;9.520;2022-08-11T02:19:24;16.80;98.00
4505;DHT22;2265;48.794;9.520;2022-08-11T02:22:22;16.70;98.00
4505;DHT22;2265;48.794;9.520;2022-08-11T02:25:16;16.70;98.00
4505;DHT22;2265;48.794;9.520;2022-08-11T02:27:52;16.80;98.00
4505;DHT22;2265;48.794;9.520;2022-08-11T02:30:24;16.90;98.00
4505;DHT22;2265;48.794;9.520;2022-08-11T02:33:00;16.70;98.00
4505;DHT22;2265;48.794;9.520;2022-08-11T02:35:57;16.60;98.00
4505;DHT22;2265;48.794;9.520;2022-08-11T02:38:31;16.50;98.00
4505;DHT22;2265;48.794;9.520;2022-08-11T02:41:07;16.40;98.00
4505;DHT22;2265;48.794;9.520;2022-08-11T02:44:16;16.10;98.00
4505;DHT22;2265;48.794;9.520;2022-08-11T02:47:07;16.20;98.00
4505;DHT22;2265;48.794;9.520;2022-08-11T02:49:48;16.20;98.00
4505;DHT22;2265;48.794;9.520;2022-08-11T02:52:29;16.40;98.00
4505;DHT22;2265;48.794;9.520;2022-08-11T02:55:15;16.50;98.00
4505;DHT22;2265;48.794;9.520;2022-08-11T02:57:50;16.50;98.00
4505;DHT22;2265;48.794;9.520;2022-08-11T03:00:21;16.30;98.00
4505;DHT22;2265;48.794;9.520;2022-08-11T03:03:03;16.40;98.00
4505;DHT22;2265;48.794;9.520;2022-08-11T03:05:46;16.60;98.00
4505;DHT22;2265;48.794;9.520;2022-08-11T03:11:11;16.50;98.00
4505;DHT22;2265;48.794;9.520;2022-08-11T03:14:14;16.40;98.00
4505;DHT22;2265;48.794;9.520;2022-08-11T03:17:15;16.20;98.00
4505;DHT22;2265;48.794;9.520;2022-08-11T03:19:52;16.00;98.00
4505;DHT22;2265;48.794;9.520;2022-08-11T03:22:29;15.90;98.00
4505;DHT22;2265;48.794;9.520;2022-08-11T03:25:04;16.00;98.00
4505;DHT22;2265;48.794;9.520;2022-08-11T03:27:45;16.10;98.00
4505;DHT22;2265;48.794;9.520;2022-08-11T03:30:18;16.10;98.00
4505;DHT22;2265;48.794;9.520;2022-08-11T03:33:12;16.10;98.00
4505;DHT22;2265;48.794;9.520;2022-08-11T03:36:09;15.80;98.00
4505;DHT22;2265;48.794;9.520;2022-08-11T03:38:57;15.70;98.00
4505;DHT22;2265;48.794;9.520;2022-08-11T03:41:33;15.60;98.00
4505;DHT22;2265;48.794;9.520;2022-08-11T03:44:20;15.60;98.00
4505;DHT22;2265;48.794;9.520;2022-08-11T03:50:07;15.60;98.00
4505;DHT22;2265;48.794;9.520;2022-08-11T03:52:48;15.60;98.00
4505;DHT22;2265;48.794;9.520;2022-08-11T03:55:29;15.50;98.00
4505;DHT22;2265;48.794;9.520;2022-08-11T03:58:25;15.50;98.00
4505;DHT22;2265;48.794;9.520;2022-08-11T04:01:18;15.50;98.00
4505;DHT22;2265;48.794;9.520;2022-08-11T04:07:34;15.50;98.00
4505;DHT22;2265;48.794;9.520;2022-08-11T04:10:31;15.40;98.00
4505;DHT22;2265;48.794;9.520;2022-08-11T04:13:34;15.40;98.00
4505;DHT22;2265;48.794;9.520;2022-08-11T04:16:23;15.40;98.00
4505;DHT22;2265;48.794;9.520;2022-08-11T04:19:20;15.40;98.00
4505;DHT22;2265;48.794;9.520;2022-08-11T04:22:27;15.40;98.00
4505;DHT22;2265;48.794;9.520;2022-08-11T04:25:27;15.30;98.00
4505;DHT22;2265;48.794;9.520;2022-08-11T04:28:23;15.40;98.00
4505;DHT22;2265;48.794;9.520;2022-08-11T04:34:23;15.50;98.00
4505;DHT22;2265;48.794;9.520;2022-08-11T04:37:31;15.60;98.00
4505;DHT22;2265;48.794;9.520;2022-08-11T04:40:28;15.60;98.00
4505;DHT22;2265;48.794;9.520;2022-08-11T04:43:30;15.60;98.00
4505;DHT22;2265;48.794;9.520;2022-08-11T04:49:29;15.70;98.00
4505;DHT22;2265;48.794;9.520;2022-08-11T04:56:04;15.90;98.00
4505;DHT22;2265;48.794;9.520;2022-08-11T05:05:29;15.70;98.00
4505;DHT22;2265;48.794;9.520;2022-08-11T05:11:31;15.70;98.00
4505;DHT22;2265;48.794;9.520;2022-08-11T05:14:24;15.60;98.00
4505;DHT22;2265;48.794;9.520;2022-08-11T05:17:13;15.70;98.00
4505;DHT22;2265;48.794;9.520;2022-08-11T05:20:00;15.80;98.00
4505;DHT22;2265;48.794;9.520;2022-08-11T05:22:49;15.80;98.00
4505;DHT22;2265;48.794;9.520;2022-08-11T05:25:35;15.80;98.00
4505;DHT22;2265;48.794;9.520;2022-08-11T05:28:30;15.90;98.00
4505;DHT22;2265;48.794;9.520;2022-08-11T05:31:18;16.00;98.00
4505;DHT22;2265;48.794;9.520;2022-08-11T05:34:09;15.90;98.00
4505;DHT22;2265;48.794;9.520;2022-08-11T05:36:59;16.00;98.00
4505;DHT22;2265;48.794;9.520;2022-08-11T05:39:32;16.10;98.00
4505;DHT22;2265;48.794;9.520;2022-08-11T05:42:21;16.20;98.00
4505;DHT22;2265;48.794;9.520;2022-08-11T05:45:12;16.50;98.00
4505;DHT22;2265;48.794;9.520;2022-08-11T05:47:57;16.50;98.00
4505;DHT22;2265;48.794;9.520;2022-08-11T05:50:50;16.60;98.00
4505;DHT22;2265;48.794;9.520;2022-08-11T05:53:49;16.70;98.00
4505;DHT22;2265;48.794;9.520;2022-08-11T05:56:42;16.90;98.00
4505;DHT22;2265;48.794;9.520;2022-08-11T05:59:12;17.00;98.00
4505;DHT22;2265;48.794;9.520;2022-08-11T06:01:42;17.20;98.00
4505;DHT22;2265;48.794;9.520;2022-08-11T06:04:16;17.20;98.00
4505;DHT22;2265;48.794;9.520;2022-08-11T06:06:53;17.40;98.00
4505;DHT22;2265;48.794;9.520;2022-08-11T06:09:27;17.60;98.00
4505;DHT22;2265;48.794;9.520;2022-08-11T06:11:58;17.70;98.00
4505;DHT22;2265;48.794;9.520;2022-08-11T06:14:26;17.80;98.00
4505;DHT22;2265;48.794;9.520;2022-08-11T06:16:58;18.00;98.00
4505;DHT22;2265;48.794;9.520;2022-08-11T06:19:37;18.10;98.00
4505;DHT22;2265;48.794;9.520;2022-08-11T06:22:07;18.20;98.00
4505;DHT22;2265;48.794;9.520;2022-08-11T06:24:39;18.40;98.00
4505;DHT22;2265;48.794;9.520;2022-08-11T06:27:08;18.50;98.00
4505;DHT22;2265;48.794;9.520;2022-08-11T06:29:36;18.60;98.00
4505;DHT22;2265;48.794;9.520;2022-08-11T06:32:11;18.70;98.00
4505;DHT22;2265;48.794;9.520;2022-08-11T06:34:54;18.80;97.80
4505;DHT22;2265;48.794;9.520;2022-08-11T06:37:34;18.90;97.50
4505;DHT22;2265;48.794;9.520;2022-08-11T06:40:11;18.90;97.80
4505;DHT22;2265;48.794;9.520;2022-08-11T06:42:50;19.10;97.70
4505;DHT22;2265;48.794;9.520;2022-08-11T06:45:26;19.30;96.50
4505;DHT22;2265;48.794;9.520;2022-08-11T06:47:56;19.40;96.10
4505;DHT22;2265;48.794;9.520;2022-08-11T06:50:27;19.50;95.40
4505;DHT22;2265;48.794;9.520;2022-08-11T06:53:16;19.70;95.70
4505;DHT22;2265;48.794;9.520;2022-08-11T06:55:45;19.80;94.70
4505;DHT22;2265;48.794;9.520;2022-08-11T06:58:32;19.90;94.80
4505;DHT22;2265;48.794;9.520;2022-08-11T07:01:27;20.00;93.80
4505;DHT22;2265;48.794;9.520;2022-08-11T07:04:03;20.10;94.00
4505;DHT22;2265;48.794;9.520;2022-08-11T07:06:42;20.20;94.10
4505;DHT22;2265;48.794;9.520;2022-08-11T07:09:56;20.40;93.70
4505;DHT22;2265;48.794;9.520;2022-08-11T07:12:49;20.50;92.90
4505;DHT22;2265;48.794;9.520;2022-08-11T07:15:36;20.60;92.50
4505;DHT22;2265;48.794;9.520;2022-08-11T07:18:09;20.70;91.90
4505;DHT22;2265;48.794;9.520;2022-08-11T07:21:13;20.90;94.80
4505;DHT22;2265;48.794;9.520;2022-08-11T07:24:01;21.40;93.60
4505;DHT22;2265;48.794;9.520;2022-08-11T07:26:50;21.90;92.30
4505;DHT22;2265;48.794;9.520;2022-08-11T07:29:37;22.20;89.70
4505;DHT22;2265;48.794;9.520;2022-08-11T07:32:15;22.40;89.60
4505;DHT22;2265;48.794;9.520;2022-08-11T07:34:49;22.60;87.90
4505;DHT22;2265;48.794;9.520;2022-08-11T07:37:20;22.80;87.60
4505;DHT22;2265;48.794;9.520;2022-08-11T07:39:49;23.10;86.80
4505;DHT22;2265;48.794;9.520;2022-08-11T07:42:20;23.20;86.00
4505;DHT22;2265;48.794;9.520;2022-08-11T07:44:49;23.40;84.60
4505;DHT22;2265;48.794;9.520;2022-08-11T07:47:36;23.40;83.50
4505;DHT22;2265;48.794;9.520;2022-08-11T07:50:23;23.60;83.30
4505;DHT22;2265;48.794;9.520;2022-08-11T07:53:09;23.70;84.70
4505;DHT22;2265;48.794;9.520;2022-08-11T07:55:37;23.80;83.60
4505;DHT22;2265;48.794;9.520;2022-08-11T07:58:04;23.90;83.10
4505;DHT22;2265;48.794;9.520;2022-08-11T08:00:52;24.10;82.10
4505;DHT22;2265;48.794;9.520;2022-08-11T08:03:38;24.30;80.70
4505;DHT22;2265;48.794;9.520;2022-08-11T08:06:23;24.40;81.50
4505;DHT22;2265;48.794;9.520;2022-08-11T08:09:11;24.50;80.30
4505;DHT22;2265;48.794;9.520;2022-08-11T08:11:59;24.70;79.60
4505;DHT22;2265;48.794;9.520;2022-08-11T08:14:44;24.70;78.40
4505;DHT22;2265;48.794;9.520;2022-08-11T08:17:29;24.70;78.90
4505;DHT22;2265;48.794;9.520;2022-08-11T08:20:16;24.80;78.70
4505;DHT22;2265;48.794;9.520;2022-08-11T08:22:48;25.00;78.30
4505;DHT22;2265;48.794;9.520;2022-08-11T08:25:23;25.10;77.60
4505;DHT22;2265;48.794;9.520;2022-08-11T08:27:52;25.20;77.00
4505;DHT22;2265;48.794;9.520;2022-08-11T08:30:21;25.30;76.60
4505;DHT22;2265;48.794;9.520;2022-08-11T08:33:07;25.50;76.60
4505;DHT22;2265;48.794;9.520;2022-08-11T08:35:36;25.70;76.10
4505;DHT22;2265;48.794;9.520;2022-08-11T08:38:03;25.70;75.60
4505;DHT22;2265;48.794;9.520;2022-08-11T08:40:32;25.80;74.80
4505;DHT22;2265;48.794;9.520;2022-08-11T08:43:03;26.00;74.40
4505;DHT22;2265;48.794;9.520;2022-08-11T08:45:36;26.00;73.70
4505;DHT22;2265;48.794;9.520;2022-08-11T08:48:08;26.10;73.60
4505;DHT22;2265;48.794;9.520;2022-08-11T08:50:44;26.20;73.40
4505;DHT22;2265;48.794;9.520;2022-08-11T08:53:34;26.30;72.10
4505;DHT22;2265;48.794;9.520;2022-08-11T08:56:05;26.50;72.50
4505;DHT22;2265;48.794;9.520;2022-08-11T08:58:34;26.70;72.60
4505;DHT22;2265;48.794;9.520;2022-08-11T09:01:03;26.80;71.90
4505;DHT22;2265;48.794;9.520;2022-08-11T09:03:30;26.90;69.80
4505;DHT22;2265;48.794;9.520;2022-08-11T09:06:02;26.90;70.00
4505;DHT22;2265;48.794;9.520;2022-08-11T09:08:31;27.00;70.00
4505;DHT22;2265;48.794;9.520;2022-08-11T09:11:00;27.20;70.90
4505;DHT22;2265;48.794;9.520;2022-08-11T09:13:46;27.40;69.90
4505;DHT22;2265;48.794;9.520;2022-08-11T09:16:15;27.50;69.20
4505;DHT22;2265;48.794;9.520;2022-08-11T09:18:43;27.70;69.00
4505;DHT22;2265;48.794;9.520;2022-08-11T09:21:11;27.80;68.50
4505;DHT22;2265;48.794;9.520;2022-08-11T09:23:41;27.90;67.40
4505;DHT22;2265;48.794;9.520;2022-08-11T09:26:30;27.80;67.50
4505;DHT22;2265;48.794;9.520;2022-08-11T09:29:17;27.80;68.10
4505;DHT22;2265;48.794;9.520;2022-08-11T09:31:45;27.90;67.60
4505;DHT22;2265;48.794;9.520;2022-08-11T09:34:14;28.00;67.80
4505;DHT22;2265;48.794;9.520;2022-08-11T09:36:42;28.10;67.00
4505;DHT22;2265;48.794;9.520;2022-08-11T09:39:28;28.20;66.60
4505;DHT22;2265;48.794;9.520;2022-08-11T09:42:14;28.30;66.10
4505;DHT22;2265;48.794;9.520;2022-08-11T09:44:43;28.40;65.20
4505;DHT22;2265;48.794;9.520;2022-08-11T09:47:19;28.50;65.80
4505;DHT22;2265;48.794;9.520;2022-08-11T09:49:50;28.60;65.10
4505;DHT22;2265;48.794;9.520;2022-08-11T09:52:19;28.70;64.50
4505;DHT22;2265;48.794;9.520;2022-08-11T09:54:48;28.70;63.80
4505;DHT22;2265;48.794;9.520;2022-08-11T09:57:18;28.80;63.80
4505;DHT22;2265;48.794;9.520;2022-08-11T10:00:08;28.90;63.50
4505;DHT22;2265;48.794;9.520;2022-08-11T10:02:45;29.00;64.30
4505;DHT22;2265;48.794;9.520;2022-08-11T10:05:16;29.20;63.40
4505;DHT22;2265;48.794;9.520;2022-08-11T10:08:02;29.30;62.70
4505;DHT22;2265;48.794;9.520;2022-08-11T10:10:33;29.30;63.30
4505;DHT22;2265;48.794;9.520;2022-08-11T10:13:04;29.40;63.30
4505;DHT22;2265;48.794;9.520;2022-08-11T10:15:35;29.50;62.60
4505;DHT22;2265;48.794;9.520;2022-08-11T10:18:10;29.50;62.80
4505;DHT22;2265;48.794;9.520;2022-08-11T10:20:58;29.50;62.20
4505;DHT22;2265;48.794;9.520;2022-08-11T10:23:28;29.70;60.70
4505;DHT22;2265;48.794;9.520;2022-08-11T10:26:14;29.80;59.90
4505;DHT22;2265;48.794;9.520;2022-08-11T10:29:02;29.80;60.60
4505;DHT22;2265;48.794;9.520;2022-08-11T10:31:54;30.00;59.90
4505;DHT22;2265;48.794;9.520;2022-08-11T10:34:39;30.20;59.70
4505;DHT22;2265;48.794;9.520;2022-08-11T10:37:07;30.40;58.70
4505;DHT22;2265;48.794;9.520;2022-08-11T10:39:38;30.50;58.80
4505;DHT22;2265;48.794;9.520;2022-08-11T10:42:06;30.50;58.20
4505;DHT22;2265;48.794;9.520;2022-08-11T10:44:55;30.60;58.00
4505;DHT22;2265;48.794;9.520;2022-08-11T10:47:26;30.70;57.80
4505;DHT22;2265;48.794;9.520;2022-08-11T10:50:07;30.80;57.70
4505;DHT22;2265;48.794;9.520;2022-08-11T10:52:54;30.80;57.60
4505;DHT22;2265;48.794;9.520;2022-08-11T10:55:42;30.90;57.30
4505;DHT22;2265;48.794;9.520;2022-08-11T10:58:28;31.10;56.00
4505;DHT22;2265;48.794;9.520;2022-08-11T11:01:15;31.20;56.40
4505;DHT22;2265;48.794;9.520;2022-08-11T11:03:45;31.40;55.60
4505;DHT22;2265;48.794;9.520;2022-08-11T11:06:24;31.40;56.50
4505;DHT22;2265;48.794;9.520;2022-08-11T11:08:56;31.60;56.10
4505;DHT22;2265;48.794;9.520;2022-08-11T11:11:28;31.80;55.20
4505;DHT22;2265;48.794;9.520;2022-08-11T11:14:13;31.70;55.00
4505;DHT22;2265;48.794;9.520;2022-08-11T11:16:59;31.80;55.40
4505;DHT22;2265;48.794;9.520;2022-08-11T11:19:46;32.00;54.50
4505;DHT22;2265;48.794;9.520;2022-08-11T11:22:16;32.10;53.80
4505;DHT22;2265;48.794;9.520;2022-08-11T11:25:21;32.30;53.80
4505;DHT22;2265;48.794;9.520;2022-08-11T11:28:14;32.60;54.10
4505;DHT22;2265;48.794;9.520;2022-08-11T11:30:54;32.80;53.30
4505;DHT22;2265;48.794;9.520;2022-08-11T11:33:30;32.90;53.20
4505;DHT22;2265;48.794;9.520;2022-08-11T11:36:12;32.90;53.20
4505;DHT22;2265;48.794;9.520;2022-08-11T11:38:41;33.00;52.50
4505;DHT22;2265;48.794;9.520;2022-08-11T11:41:09;33.10;52.10
4505;DHT22;2265;48.794;9.520;2022-08-11T11:43:53;33.40;52.50
4505;DHT22;2265;48.794;9.520;2022-08-11T11:46:22;33.70;50.90
4505;DHT22;2265;48.794;9.520;2022-08-11T11:48:51;33.80;51.10
4505;DHT22;2265;48.794;9.520;2022-08-11T11:51:21;34.10;50.60
4505;DHT22;2265;48.794;9.520;2022-08-11T11:53:48;33.70;51.50
4505;DHT22;2265;48.794;9.520;2022-08-11T11:56:16;33.60;51.60
4505;DHT22;2265;48.794;9.520;2022-08-11T11:58:47;33.40;52.50
4505;DHT22;2265;48.794;9.520;2022-08-11T12:01:33;33.30;51.50
4505;DHT22;2265;48.794;9.520;2022-08-11T12:04:04;33.30;51.80
4505;DHT22;2265;48.794;9.520;2022-08-11T12:06:34;33.30;51.40
4505;DHT22;2265;48.794;9.520;2022-08-11T12:09:02;33.30;51.70
4505;DHT22;2265;48.794;9.520;2022-08-11T12:11:30;33.30;52.10
4505;DHT22;2265;48.794;9.520;2022-08-11T12:14:17;33.40;52.90
4505;DHT22;2265;48.794;9.520;2022-08-11T12:16:47;33.60;51.80
4505;DHT22;2265;48.794;9.520;2022-08-11T12:19:17;33.80;51.20
4505;DHT22;2265;48.794;9.520;2022-08-11T12:21:47;33.90;50.70
4505;DHT22;2265;48.794;9.520;2022-08-11T12:24:34;34.00;51.40
4505;DHT22;2265;48.794;9.520;2022-08-11T12:27:20;34.10;50.40
4505;DHT22;2265;48.794;9.520;2022-08-11T12:29:50;34.40;50.50
4505;DHT22;2265;48.794;9.520;2022-08-11T12:32:18;34.40;49.90
4505;DHT22;2265;48.794;9.520;2022-08-11T12:34:45;34.30;48.60
4505;DHT22;2265;48.794;9.520;2022-08-11T12:37:15;34.10;49.00
4505;DHT22;2265;48.794;9.520;2022-08-11T12:39:50;34.20;49.40
4505;DHT22;2265;48.794;9.520;2022-08-11T12:42:36;34.20;49.60
4505;DHT22;2265;48.794;9.520;2022-08-11T12:45:24;34.20;49.60
4505;DHT22;2265;48.794;9.520;2022-08-11T12:48:02;34.30;50.40
4505;DHT22;2265;48.794;9.520;2022-08-11T12:50:51;34.20;49.00
4505;DHT22;2265;48.794;9.520;2022-08-11T12:53:43;34.40;49.30
4505;DHT22;2265;48.794;9.520;2022-08-11T12:56:12;34.80;49.40
4505;DHT22;2265;48.794;9.520;2022-08-11T12:58:57;34.90;49.20
4505;DHT22;2265;48.794;9.520;2022-08-11T13:01:42;35.00;48.60
4505;DHT22;2265;48.794;9.520;2022-08-11T13:04:29;35.20;47.80
4505;DHT22;2265;48.794;9.520;2022-08-11T13:07:16;35.30;48.30
4505;DHT22;2265;48.794;9.520;2022-08-11T13:09:47;35.30;48.30
4505;DHT22;2265;48.794;9.520;2022-08-11T13:12:15;35.50;47.40
4505;DHT22;2265;48.794;9.520;2022-08-11T13:15:00;35.60;47.50
4505;DHT22;2265;48.794;9.520;2022-08-11T13:17:28;35.90;46.40
4505;DHT22;2265;48.794;9.520;2022-08-11T13:19:57;35.80;47.20
4505;DHT22;2265;48.794;9.520;2022-08-11T13:22:25;36.20;46.80
4505;DHT22;2265;48.794;9.520;2022-08-11T13:24:54;36.20;46.20
4505;DHT22;2265;48.794;9.520;2022-08-11T13:27:24;35.90;46.30
4505;DHT22;2265;48.794;9.520;2022-08-11T13:29:52;35.70;47.50
4505;DHT22;2265;48.794;9.520;2022-08-11T13:32:41;36.10;47.00
4505;DHT22;2265;48.794;9.520;2022-08-11T13:35:11;36.50;46.40
4505;DHT22;2265;48.794;9.520;2022-08-11T13:37:43;36.40;46.60
4505;DHT22;2265;48.794;9.520;2022-08-11T13:40:15;36.70;45.40
4505;DHT22;2265;48.794;9.520;2022-08-11T13:42:44;36.90;45.40
4505;DHT22;2265;48.794;9.520;2022-08-11T13:45:11;36.60;45.40
4505;DHT22;2265;48.794;9.520;2022-08-11T13:47:41;36.50;45.70
4505;DHT22;2265;48.794;9.520;2022-08-11T13:50:09;36.30;45.60
4505;DHT22;2265;48.794;9.520;2022-08-11T13:52:38;36.70;45.00
4505;DHT22;2265;48.794;9.520;2022-08-11T13:55:07;36.70;44.60
4505;DHT22;2265;48.794;9.520;2022-08-11T13:57:49;36.50;44.80
4505;DHT22;2265;48.794;9.520;2022-08-11T14:00:22;36.70;44.80
4505;DHT22;2265;48.794;9.520;2022-08-11T14:02:51;36.80;45.30
4505;DHT22;2265;48.794;9.520;2022-08-11T14:05:24;36.90;44.90
4505;DHT22;2265;48.794;9.520;2022-08-11T14:07:56;36.90;43.90
4505;DHT22;2265;48.794;9.520;2022-08-11T14:10:28;36.60;44.80
4505;DHT22;2265;48.794;9.520;2022-08-11T14:13:02;36.70;44.90
4505;DHT22;2265;48.794;9.520;2022-08-11T14:15:47;37.00;44.80
4505;DHT22;2265;48.794;9.520;2022-08-11T14:18:18;36.90;45.10
4505;DHT22;2265;48.794;9.520;2022-08-11T14:20:49;37.40;44.30
4505;DHT22;2265;48.794;9.520;2022-08-11T14:23:39;37.60;44.40
4505;DHT22;2265;48.794;9.520;2022-08-11T14:26:08;37.60;44.10
4505;DHT22;2265;48.794;9.520;2022-08-11T14:28:55;37.70;43.50
4505;DHT22;2265;48.794;9.520;2022-08-11T14:31:25;37.70;43.20
4505;DHT22;2265;48.794;9.520;2022-08-11T14:33:56;37.50;44.20
4505;DHT22;2265;48.794;9.520;2022-08-11T14:36:29;37.70;43.90
4505;DHT22;2265;48.794;9.520;2022-08-11T14:39:01;37.70;43.60
4505;DHT22;2265;48.794;9.520;2022-08-11T14:41:29;37.60;43.30
4505;DHT22;2265;48.794;9.520;2022-08-11T14:44:17;37.50;43.70
4505;DHT22;2265;48.794;9.520;2022-08-11T14:47:02;37.60;43.90
4505;DHT22;2265;48.794;9.520;2022-08-11T14:49:34;37.30;43.40
4505;DHT22;2265;48.794;9.520;2022-08-11T14:52:05;37.10;43.80
4505;DHT22;2265;48.794;9.520;2022-08-11T14:54:33;37.00;43.90
4505;DHT22;2265;48.794;9.520;2022-08-11T14:57:19;36.80;43.70
4505;DHT22;2265;48.794;9.520;2022-08-11T14:59:49;36.80;44.00
4505;DHT22;2265;48.794;9.520;2022-08-11T15:02:18;36.80;44.40
4505;DHT22;2265;48.794;9.520;2022-08-11T15:05:05;36.70;44.70
4505;DHT22;2265;48.794;9.520;2022-08-11T15:07:33;36.70;44.60
4505;DHT22;2265;48.794;9.520;2022-08-11T15:10:04;36.70;43.70
4505;DHT22;2265;48.794;9.520;2022-08-11T15:12:34;36.70;44.60
4505;DHT22;2265;48.794;9.520;2022-08-11T15:15:05;36.70;45.00
4505;DHT22;2265;48.794;9.520;2022-08-11T15:17:53;36.60;44.70
4505;DHT22;2265;48.794;9.520;2022-08-11T15:20:21;36.60;45.40
4505;DHT22;2265;48.794;9.520;2022-08-11T15:23:05;36.50;45.20
4505;DHT22;2265;48.794;9.520;2022-08-11T15:25:54;36.20;45.20
4505;DHT22;2265;48.794;9.520;2022-08-11T15:28:24;36.20;45.20
4505;DHT22;2265;48.794;9.520;2022-08-11T15:31:13;36.20;45.40
4505;DHT22;2265;48.794;9.520;2022-08-11T15:34:03;36.30;45.40
4505;DHT22;2265;48.794;9.520;2022-08-11T15:36:52;36.50;45.50
4505;DHT22;2265;48.794;9.520;2022-08-11T15:39:45;36.40;45.10
4505;DHT22;2265;48.794;9.520;2022-08-11T15:42:28;36.50;44.60
4505;DHT22;2265;48.794;9.520;2022-08-11T15:45:14;36.50;44.70
4505;DHT22;2265;48.794;9.520;2022-08-11T15:48:08;36.30;45.10
4505;DHT22;2265;48.794;9.520;2022-08-11T15:50:40;36.30;44.90
4505;DHT22;2265;48.794;9.520;2022-08-11T15:53:10;36.40;44.60
4505;DHT22;2265;48.794;9.520;2022-08-11T15:55:38;36.30;44.90
4505;DHT22;2265;48.794;9.520;2022-08-11T15:58:08;36.30;45.00
4505;DHT22;2265;48.794;9.520;2022-08-11T16:00:56;36.30;44.50
4505;DHT22;2265;48.794;9.520;2022-08-11T16:03:46;36.10;44.50
4505;DHT22;2265;48.794;9.520;2022-08-11T16:06:33;36.00;45.20
4505;DHT22;2265;48.794;9.520;2022-08-11T16:09:02;35.80;45.20
4505;DHT22;2265;48.794;9.520;2022-08-11T16:11:33;35.60;45.60
4505;DHT22;2265;48.794;9.520;2022-08-11T16:14:01;35.40;46.00
4505;DHT22;2265;48.794;9.520;2022-08-11T16:16:47;35.10;45.70
4505;DHT22;2265;48.794;9.520;2022-08-11T16:19:18;34.80;46.30
4505;DHT22;2265;48.794;9.520;2022-08-11T16:21:47;34.40;46.70
4505;DHT22;2265;48.794;9.520;2022-08-11T16:24:18;34.40;46.90
4505;DHT22;2265;48.794;9.520;2022-08-11T16:26:46;34.40;47.20
4505;DHT22;2265;48.794;9.520;2022-08-11T16:29:15;34.40;47.30
4505;DHT22;2265;48.794;9.520;2022-08-11T16:31:44;34.40;47.10
4505;DHT22;2265;48.794;9.520;2022-08-11T16:34:34;34.30;47.40
4505;DHT22;2265;48.794;9.520;2022-08-11T16:37:21;34.10;47.70
4505;DHT22;2265;48.794;9.520;2022-08-11T16:40:08;34.10;48.00
4505;DHT22;2265;48.794;9.520;2022-08-11T16:42:36;34.10;47.60
4505;DHT22;2265;48.794;9.520;2022-08-11T16:45:22;34.00;47.20
4505;DHT22;2265;48.794;9.520;2022-08-11T16:48:08;33.70;47.70
4505;DHT22;2265;48.794;9.520;2022-08-11T16:50:39;33.50;47.90
4505;DHT22;2265;48.794;9.520;2022-08-11T16:53:07;33.50;48.00
4505;DHT22;2265;48.794;9.520;2022-08-11T16:55:35;33.60;48.00
4505;DHT22;2265;48.794;9.520;2022-08-11T16:58:06;33.30;48.00
4505;DHT22;2265;48.794;9.520;2022-08-11T17:00:52;33.20;48.00
4505;DHT22;2265;48.794;9.520;2022-08-11T17:03:19;33.30;47.60
4505;DHT22;2265;48.794;9.520;2022-08-11T17:06:07;33.20;47.70
4505;DHT22;2265;48.794;9.520;2022-08-11T17:08:53;33.00;48.50
4505;DHT22;2265;48.794;9.520;2022-08-11T17:11:41;32.90;48.90
4505;DHT22;2265;48.794;9.520;2022-08-11T17:14:36;32.80;48.20
4505;DHT22;2265;48.794;9.520;2022-08-11T17:17:06;32.50;49.10
4505;DHT22;2265;48.794;9.520;2022-08-11T17:19:41;32.40;49.50
4505;DHT22;2265;48.794;9.520;2022-08-11T17:22:12;32.30;49.40
4505;DHT22;2265;48.794;9.520;2022-08-11T17:24:58;32.20;49.60
4505;DHT22;2265;48.794;9.520;2022-08-11T17:27:26;32.20;49.70
4505;DHT22;2265;48.794;9.520;2022-08-11T17:29:57;32.10;49.80
4505;DHT22;2265;48.794;9.520;2022-08-11T17:32:29;32.00;49.90
4505;DHT22;2265;48.794;9.520;2022-08-11T17:35:17;32.00;50.50
4505;DHT22;2265;48.794;9.520;2022-08-11T17:38:04;31.80;50.20
4505;DHT22;2265;48.794;9.520;2022-08-11T17:40:34;31.80;50.20
4505;DHT22;2265;48.794;9.520;2022-08-11T17:43:01;31.80;50.40
4505;DHT22;2265;48.794;9.520;2022-08-11T17:45:46;31.70;50.90
4505;DHT22;2265;48.794;9.520;2022-08-11T17:48:35;31.50;50.90
4505;DHT22;2265;48.794;9.520;2022-08-11T17:51:05;31.40;51.10
4505;DHT22;2265;48.794;9.520;2022-08-11T17:53:40;31.40;51.40
4505;DHT22;2265;48.794;9.520;2022-08-11T17:56:26;31.10;51.90
4505;DHT22;2265;48.794;9.520;2022-08-11T17:59:14;30.90;52.10
4505;DHT22;2265;48.794;9.520;2022-08-11T18:02:02;30.90;52.20
4505;DHT22;2265;48.794;9.520;2022-08-11T18:04:44;30.80;51.80
4505;DHT22;2265;48.794;9.520;2022-08-11T18:07:14;30.70;52.70
4505;DHT22;2265;48.794;9.520;2022-08-11T18:10:02;30.60;53.20
4505;DHT22;2265;48.794;9.520;2022-08-11T18:12:49;30.40;53.20
4505;DHT22;2265;48.794;9.520;2022-08-11T18:15:36;30.20;53.90
4505;DHT22;2265;48.794;9.520;2022-08-11T18:18:22;30.10;53.00